Time;durP1;ratioP1;P1;durP2;ratioP2;P2;SDS_P1;SDS_P2;PMS_P1;PMS_P2;Temp;Humidity;BMP_temperature;BMP_pressure;BME280_temperature;BME280_humidity;BME280_pressure;Samples;Min_cycle;Max_cycle;Signal;HPM_P1;HPM_P2
2022/04/18 00:00:43;;;;;;;;;;;;;;;;;;4952474;28;137838;-68
2022/04/18 00:03:09;;;;;;;;;;;;;;;;;;4952974;28;136549;-68
2022/04/18 00:05:36;;;;;;;;;;;;;;;;;;4955699;28;122528;-67
2022/04/18 00:08:03;;;;;;;;;;;;;;;;;;4953859;28;106646;-67
2022/04/18 00:10:29;;;;;;;;;;;;;;;;;;4952414;28;122645;-68
2022/04/18 00:12:55;;;;;;;;;;;;;;;;;;4952867;28;136505;-66
2022/04/18 00:15:23;;;;;;;;;;;;;;;;;;4951335;28;135301;-66
2022/04/18 00:17:50;;;;;;;;;;;;;;;;;;4953041;28;121867;-67
2022/04/18 00:20:16;;;;;;;;;;;;;;;;;;4952381;28;136400;-67
2022/04/18 00:22:44;;;;;;;;;;;;;;;;;;4951919;28;135753;-68
2022/04/18 00:25:10;;;;;;;;;;;;;;;;;;4967427;28;122596;-68
2022/04/18 00:27:37;;;;;;;;;;;;;;;;;;4955868;28;135237;-68
2022/04/18 00:30:03;;;;;;;;;;;;;;;;;;4952886;28;118991;-68
2022/04/18 00:32:30;;;;;;;;;;;;;;;;;;4953501;28;106658;-68
2022/04/18 00:34:57;;;;;;;;;;;;;;;;;;4967175;28;115777;-68
2022/04/18 00:37:23;;;;;;;;;;;;;;;;;;4952321;28;122859;-68
2022/04/18 00:39:49;;;;;;;;;;;;;;;;;;4952481;28;116428;-68
2022/04/18 00:42:16;;;;;;;;;;;;;;;;;;4952969;28;107271;-68
2022/04/18 00:44:42;;;;;;;;;;;;;;;;;;4951707;28;106657;-68
2022/04/18 00:47:08;;;;;;;;;;;;;;;;;;4952473;28;133867;-68
2022/04/18 00:49:35;;;;;;;;;;;;;;;;;;4953908;28;135926;-68
2022/04/18 00:52:01;;;;;;;;;;;;;;;;;;4952424;28;138831;-68
2022/04/18 00:54:27;;;;;;;;;;;;;;;;;;4951394;28;136232;-67
2022/04/18 00:56:54;;;;;;;;;;;;;;;;;;4951860;28;125614;-68
2022/04/18 00:59:20;;;;;;;;;;;;;;;;;;4948948;28;135170;-68
2022/04/18 01:01:46;;;;;;;;;;;;;;;;;;4950830;28;119945;-68
2022/04/18 01:04:13;;;;;;;;;;;;;;;;;;4952114;28;105568;-67
2022/04/18 01:06:40;;;;;;;;;;;;;;;;;;4951670;28;108452;-68
2022/04/18 01:09:06;;;;;;;;;;;;;;;;;;4951716;28;135882;-68
2022/04/18 01:11:32;;;;;;;;;;;;;;;;;;4959125;28;107272;-68
2022/04/18 01:14:00;;;;;;;;;;;;;;;;;;4974933;22;107839;-73
2022/04/18 01:16:39;;;;;;;;;;;;;;;;;;4953879;28;107671;-73
2022/04/18 01:19:12;;;;;;;;;;;;;;;;;;4952089;28;108646;-73
2022/04/18 01:21:58;;;;;;;;;;;;;;;;;;4953582;28;106223;-72
2022/04/18 01:30:19;;;;;;;;;;;;;;;;;;4951283;28;108385;-73
2022/04/18 01:32:45;;;;;;;;;;;;;;;;;;4954542;28;105712;-73
2022/04/18 01:35:11;;;;;;;;;;;;;;;;;;4934356;28;135897;-73
2022/04/18 01:37:39;;;;;;;;;;;;;;;;;;4951993;28;105817;-73
2022/04/18 01:40:07;;;;;;;;;;;;;;;;;;4950406;28;108189;-73
2022/04/18 01:42:34;;;;;;;;;;;;;;;;;;4953514;28;112323;-73
2022/04/18 01:45:00;;;;;;;;;;;;;;;;;;4949988;28;106880;-73
2022/04/18 01:47:27;;;;;;;;;;;;;;;;;;4952107;28;107880;-73
2022/04/18 01:49:53;;;;;;;;;;;;;;;;;;4951127;28;135659;-73
2022/04/18 01:52:20;;;;;;;;;;;;;;;;;;4951597;28;105981;-72
2022/04/18 01:54:46;;;;;;;;;;;;;;;;;;4954299;28;108080;-73
2022/04/18 01:57:14;;;;;;;;;;;;;;;;;;4953941;28;106149;-73
2022/04/18 01:59:42;;;;;;;;;;;;;;;;;;4941027;28;108253;-73
2022/04/18 02:02:09;;;;;;;;;;;;;;;;;;4954386;28;109277;-73
2022/04/18 02:04:36;;;;;;;;;;;;;;;;;;4954685;28;124527;-72
2022/04/18 02:07:08;;;;;;;;;;;;;;;;;;4955176;28;107967;-73
2022/04/18 02:09:35;;;;;;;;;;;;;;;;;;4954571;28;108896;-72
2022/04/18 02:12:01;;;;;;;;;;;;;;;;;;4955222;28;106406;-72
2022/04/18 02:14:34;;;;;;;;;;;;;;;;;;4951380;28;107803;-73
2022/04/18 02:17:01;;;;;;;;;;;;;;;;;;4961963;28;108569;-73
2022/04/18 02:19:27;;;;;;;;;;;;;;;;;;4954430;28;137752;-73
2022/04/18 02:21:53;;;;;;;;;;;;;;;;;;4954507;28;138041;-72
2022/04/18 02:24:19;;;;;;;;;;;;;;;;;;4954742;28;121506;-73
2022/04/18 02:26:46;;;;;;;;;;;;;;;;;;4953263;28;135825;-73
2022/04/18 02:29:12;;;;;;;;;;;;;;;;;;4952645;28;108881;-73
2022/04/18 02:34:25;;;;;;;;;;;;;;;;;;4970750;28;107935;-72
2022/04/18 02:36:53;;;;;;;;;;;;;;;;;;4970190;28;108801;-72
2022/04/18 02:39:21;;;;;;;;;;;;;;;;;;4956919;28;107330;-69
2022/04/18 02:41:47;;;;;;;;;;;;;;;;;;4953713;28;108856;-72
2022/04/18 02:44:13;;;;;;;;;;;;;;;;;;4970486;28;106230;-71
2022/04/18 02:46:40;;;;;;;;;;;;;;;;;;4970588;28;107025;-72
2022/04/18 02:49:06;;;;;;;;;;;;;;;;;;4969483;28;135639;-72
2022/04/18 02:51:33;;;;;;;;;;;;;;;;;;4953358;28;119788;-72
2022/04/18 02:54:05;;;;;;;;;;;;;;;;;;4954391;28;108110;-72
2022/04/18 02:56:34;;;;;;;;;;;;;;;;;;4971125;28;108789;-67
2022/04/18 02:59:00;;;;;;;;;;;;;;;;;;4968046;28;121271;-72
2022/04/18 03:01:26;;;;;;;;;;;;;;;;;;4957020;28;108187;-72
2022/04/18 03:03:55;;;;;;;;;;;;;;;;;;4969954;28;106387;-72
2022/04/18 03:06:21;;;;;;;;;;;;;;;;;;4953163;28;108238;-72
2022/04/18 03:08:47;;;;;;;;;;;;;;;;;;4952785;28;136859;-71
2022/04/18 03:11:14;;;;;;;;;;;;;;;;;;4953392;28;117999;-71
2022/04/18 03:13:47;;;;;;;;;;;;;;;;;;4950422;28;136279;-72
2022/04/18 03:16:29;;;;;;;;;;;;;;;;;;4936652;28;108662;-72
2022/04/18 03:18:55;;;;;;;;;;;;;;;;;;4947976;28;122614;-72
2022/04/18 03:21:22;;;;;;;;;;;;;;;;;;4937597;28;107778;-72
2022/04/18 03:23:52;;;;;;;;;;;;;;;;;;4956517;28;107348;-72
2022/04/18 03:26:23;;;;;;;;;;;;;;;;;;4954770;28;107426;-71
2022/04/18 03:28:56;;;;;;;;;;;;;;;;;;4968113;28;109866;-72
2022/04/18 03:31:22;;;;;;;;;;;;;;;;;;4952329;28;106274;-71
2022/04/18 03:33:49;;;;;;;;;;;;;;;;;;4954868;28;108133;-72
2022/04/18 03:41:46;;;;;;;;;;;;;;;;;;4954008;28;135947;-71
2022/04/18 03:44:12;;;;;;;;;;;;;;;;;;4971867;28;108549;-72
2022/04/18 03:46:40;;;;;;;;;;;;;;;;;;4969919;28;107846;-71
2022/04/18 03:49:06;;;;;;;;;;;;;;;;;;4952741;28;136191;-72
2022/04/18 03:51:34;;;;;;;;;;;;;;;;;;4936761;28;106323;-71
2022/04/18 03:54:01;;;;;;;;;;;;;;;;;;4936741;28;107074;-72
2022/04/18 03:56:29;;;;;;;;;;;;;;;;;;4953038;28;108223;-71
2022/04/18 03:59:08;;;;;;;;;;;;;;;;;;4953510;28;106229;-71
2022/04/18 04:01:57;;;;;;;;;;;;;;;;;;4953369;28;106441;-73
2022/04/18 04:04:25;;;;;;;;;;;;;;;;;;4951517;28;108262;-72
2022/04/18 04:06:53;;;;;;;;;;;;;;;;;;4943718;28;108099;-71
2022/04/18 04:09:20;;;;;;;;;;;;;;;;;;4952666;28;108557;-72
2022/04/18 04:11:46;;;;;;;;;;;;;;;;;;4944432;28;121892;-71
2022/04/18 04:14:13;;;;;;;;;;;;;;;;;;4951975;28;120313;-72
2022/04/18 04:16:39;;;;;;;;;;;;;;;;;;4952745;28;108374;-72
2022/04/18 04:19:06;;;;;;;;;;;;;;;;;;4950977;28;106477;-72
2022/04/18 04:21:33;;;;;;;;;;;;;;;;;;4953700;28;134682;-72
2022/04/18 04:23:59;;;;;;;;;;;;;;;;;;4950689;28;135590;-72
2022/04/18 04:26:39;;;;;;;;;;;;;;;;;;4968824;28;106746;-72
2022/04/18 04:29:08;;;;;;;;;;;;;;;;;;4955237;28;106778;-72
2022/04/18 04:31:39;;;;;;;;;;;;;;;;;;4952682;28;106425;-72
2022/04/18 04:34:10;;;;;;;;;;;;;;;;;;4968551;28;107970;-72
2022/04/18 04:36:43;;;;;;;;;;;;;;;;;;4968526;28;109079;-71
2022/04/18 04:39:12;;;;;;;;;;;;;;;;;;4952678;28;106020;-72
2022/04/18 04:41:42;;;;;;;;;;;;;;;;;;4968039;28;108054;-72
2022/04/18 04:44:08;;;;;;;;;;;;;;;;;;4949082;28;108837;-72
2022/04/18 04:46:48;;;;;;;;;;;;;;;;;;4952353;28;106730;-72
2022/04/18 04:49:17;;;;;;;;;;;;;;;;;;4968300;28;107960;-71
2022/04/18 04:52:06;;;;;;;;;;;;;;;;;;4953040;28;106341;-71
2022/04/18 04:54:32;;;;;;;;;;;;;;;;;;4951543;28;122800;-71
2022/04/18 04:56:59;;;;;;;;;;;;;;;;;;4968664;28;109396;-71
2022/04/18 04:59:37;;;;;;;;;;;;;;;;;;4952038;28;106486;-72
2022/04/18 05:02:05;;;;;;;;;;;;;;;;;;4969381;28;108005;-72
2022/04/18 05:04:31;;;;;;;;;;;;;;;;;;4951619;28;108937;-72
2022/04/18 05:06:58;;;;;;;;;;;;;;;;;;4951610;28;106891;-73
2022/04/18 05:09:40;;;;;;;;;;;;;;;;;;4967157;28;106820;-72
2022/04/18 05:12:07;;;;;;;;;;;;;;;;;;4951646;28;108554;-68
2022/04/18 05:14:33;;;;;;;;;;;;;;;;;;4956643;28;107227;-72
2022/04/18 05:17:07;;;;;;;;;;;;;;;;;;4951554;28;108970;-73
2022/04/18 05:19:37;;;;;;;;;;;;;;;;;;4950731;28;105997;-72
2022/04/18 05:22:22;;;;;;;;;;;;;;;;;;4953303;28;106270;-71
2022/04/18 05:24:49;;;;;;;;;;;;;;;;;;4951712;28;108554;-72
2022/04/18 05:27:22;;;;;;;;;;;;;;;;;;4935046;28;106110;-72
2022/04/18 05:29:48;;;;;;;;;;;;;;;;;;4968970;28;108883;-73
2022/04/18 05:32:15;;;;;;;;;;;;;;;;;;4954718;28;108850;-72
2022/04/18 05:34:50;;;;;;;;;;;;;;;;;;4971501;28;107896;-72
2022/04/18 05:37:22;;;;;;;;;;;;;;;;;;4958069;28;106842;-71
2022/04/18 05:40:08;;;;;;;;;;;;;;;;;;4953799;28;106593;-73
2022/04/18 05:42:34;;;;;;;;;;;;;;;;;;4955746;28;106688;-72
2022/04/18 05:45:06;;;;;;;;;;;;;;;;;;4955821;28;106883;-73
2022/04/18 05:47:32;;;;;;;;;;;;;;;;;;4945313;28;107482;-74
2022/04/18 05:50:01;;;;;;;;;;;;;;;;;;4971742;28;108267;-72
2022/04/18 05:52:28;;;;;;;;;;;;;;;;;;4954281;28;108201;-72
2022/04/18 05:55:03;;;;;;;;;;;;;;;;;;4955234;28;106419;-73
2022/04/18 05:57:29;;;;;;;;;;;;;;;;;;4957569;28;107779;-72
2022/04/18 06:00:01;;;;;;;;;;;;;;;;;;4971114;28;106408;-72
2022/04/18 06:02:36;;;;;;;;;;;;;;;;;;4956389;28;106305;-73
2022/04/18 06:05:09;;;;;;;;;;;;;;;;;;4954518;28;108681;-73
2022/04/18 06:07:48;;;;;;;;;;;;;;;;;;4953736;28;106236;-71
2022/04/18 06:10:40;;;;;;;;;;;;;;;;;;4956352;28;105931;-72
2022/04/18 06:13:24;;;;;;;;;;;;;;;;;;4954250;28;106377;-72
2022/04/18 06:15:52;;;;;;;;;;;;;;;;;;4938329;28;112548;-73
2022/04/18 06:18:21;;;;;;;;;;;;;;;;;;4954499;28;107168;-72
2022/04/18 06:20:48;;;;;;;;;;;;;;;;;;4974092;28;108704;-72
2022/04/18 06:23:14;;;;;;;;;;;;;;;;;;4954405;28;135141;-72
2022/04/18 06:25:41;;;;;;;;;;;;;;;;;;4953100;28;107438;-72
2022/04/18 06:28:07;;;;;;;;;;;;;;;;;;4951802;28;115850;-72
2022/04/18 06:30:39;;;;;;;;;;;;;;;;;;4970626;28;108033;-72
2022/04/18 06:33:29;;;;;;;;;;;;;;;;;;4966533;28;108548;-71
2022/04/18 06:35:57;;;;;;;;;;;;;;;;;;4954472;28;106123;-72
2022/04/18 06:38:24;;;;;;;;;;;;;;;;;;4936790;28;136428;-72
2022/04/18 06:40:59;;;;;;;;;;;;;;;;;;4955125;28;107701;-73
2022/04/18 06:43:25;;;;;;;;;;;;;;;;;;4940627;28;106481;-73
2022/04/18 06:45:52;;;;;;;;;;;;;;;;;;4970307;28;108494;-72
2022/04/18 06:48:20;;;;;;;;;;;;;;;;;;4953515;28;106194;-72
2022/04/18 06:51:18;;;;;;;;;;;;;;;;;;4954059;28;107177;-73
2022/04/18 06:54:05;;;;;;;;;;;;;;;;;;4942761;28;106332;-72
2022/04/18 06:57:00;;;;;;;;;;;;;;;;;;4952530;28;106363;-72
2022/04/18 06:59:38;;;;;;;;;;;;;;;;;;4937459;28;108162;-72
2022/04/18 07:02:05;;;;;;;;;;;;;;;;;;4953062;28;108594;-72
2022/04/18 07:04:31;;;;;;;;;;;;;;;;;;4953770;28;107077;-72
2022/04/18 07:06:58;;;;;;;;;;;;;;;;;;4940496;28;107496;-72
2022/04/18 07:09:24;;;;;;;;;;;;;;;;;;4943028;28;125540;-73
2022/04/18 07:11:55;;;;;;;;;;;;;;;;;;4951261;28;106795;-72
2022/04/18 07:14:24;;;;;;;;;;;;;;;;;;4952314;28;108652;-72
2022/04/18 07:16:53;;;;;;;;;;;;;;;;;;4952962;28;108146;-72
2022/04/18 07:19:23;;;;;;;;;;;;;;;;;;4953183;28;107986;-72
2022/04/18 07:21:50;;;;;;;;;;;;;;;;;;4952620;28;109189;-73
2022/04/18 07:24:17;;;;;;;;;;;;;;;;;;4969821;28;106173;-72
2022/04/18 07:26:46;;;;;;;;;;;;;;;;;;4969370;28;108270;-71
2022/04/18 07:29:13;;;;;;;;;;;;;;;;;;4957077;28;130665;-72
2022/04/18 07:31:40;;;;;;;;;;;;;;;;;;4953311;28;108301;-72
2022/04/18 07:34:07;;;;;;;;;;;;;;;;;;4969703;28;108491;-72
2022/04/18 07:36:33;;;;;;;;;;;;;;;;;;4954556;28;106265;-73
2022/04/18 07:39:00;;;;;;;;;;;;;;;;;;4952898;28;125474;-72
2022/04/18 07:41:33;;;;;;;;;;;;;;;;;;4951941;28;108679;-72
2022/04/18 07:44:01;;;;;;;;;;;;;;;;;;4952856;28;105900;-72
2022/04/18 07:46:29;;;;;;;;;;;;;;;;;;4952836;28;109968;-72
2022/04/18 07:48:56;;;;;;;;;;;;;;;;;;4952752;28;108075;-72
2022/04/18 07:51:35;;;;;;;;;;;;;;;;;;4954975;28;106388;-71
2022/04/18 07:54:06;;;;;;;;;;;;;;;;;;4951419;28;108378;-72
2022/04/18 07:56:35;;;;;;;;;;;;;;;;;;4953116;28;106092;-73
2022/04/18 07:59:01;;;;;;;;;;;;;;;;;;4935355;28;131160;-72
2022/04/18 08:01:33;;;;;;;;;;;;;;;;;;4969688;28;108770;-72
2022/04/18 08:04:02;;;;;;;;;;;;;;;;;;4954558;28;106226;-72
2022/04/18 08:06:29;;;;;;;;;;;;;;;;;;4935969;28;108149;-72
2022/04/18 08:09:15;;;;;;;;;;;;;;;;;;4953863;28;107050;-71
2022/04/18 08:11:41;;;;;;;;;;;;;;;;;;4955504;28;106325;-71
2022/04/18 08:14:09;;;;;;;;;;;;;;;;;;4951855;28;108448;-71
2022/04/18 08:17:02;;;;;;;;;;;;;;;;;;4952089;28;106067;-71
2022/04/18 08:19:35;;;;;;;;;;;;;;;;;;4936334;28;108549;-71
2022/04/18 08:22:02;;;;;;;;;;;;;;;;;;4948533;28;120163;-71
2022/04/18 08:24:29;;;;;;;;;;;;;;;;;;4956905;28;107442;-71
2022/04/18 08:27:32;;;;;;;;;;;;;;;;;;4953894;28;107218;-71
2022/04/18 08:30:07;;;;;;;;;;;;;;;;;;4935283;28;108024;-71
2022/04/18 08:32:41;;;;;;;;;;;;;;;;;;4951348;28;106507;-71
2022/04/18 08:35:08;;;;;;;;;;;;;;;;;;4954113;28;135841;-71
2022/04/18 08:37:34;;;;;;;;;;;;;;;;;;4952059;28;106301;-71
2022/04/18 08:40:26;;;;;;;;;;;;;;;;;;4952546;28;107184;-71
2022/04/18 08:42:56;;;;;;;;;;;;;;;;;;4942447;28;108658;-71
2022/04/18 08:45:23;;;;;;;;;;;;;;;;;;4951816;28;106593;-70
2022/04/18 08:53:20;;;;;;;;;;;;;;;;;;4953310;28;105723;-71
2022/04/18 08:55:47;;;;;;;;;;;;;;;;;;4952249;28;108928;-72
2022/04/18 08:58:26;;;;;;;;;;;;;;;;;;4952758;28;108430;-70
2022/04/18 09:00:53;;;;;;;;;;;;;;;;;;4952298;28;108001;-70
2022/04/18 09:03:55;;;;;;;;;;;;;;;;;;4960928;28;106761;-71
2022/04/18 09:06:30;;;;;;;;;;;;;;;;;;4959051;28;106223;-71
2022/04/18 09:09:05;;;;;;;;;;;;;;;;;;4954320;28;108504;-70
2022/04/18 09:11:32;;;;;;;;;;;;;;;;;;4938129;28;108808;-70
2022/04/18 09:14:01;;;;;;;;;;;;;;;;;;4971675;28;106197;-71
2022/04/18 09:16:28;;;;;;;;;;;;;;;;;;4955586;28;108048;-70
2022/04/18 09:18:54;;;;;;;;;;;;;;;;;;4955175;28;109468;-70
2022/04/18 09:21:25;;;;;;;;;;;;;;;;;;4975460;28;106382;-70
2022/04/18 09:23:51;;;;;;;;;;;;;;;;;;4953502;28;126389;-71
2022/04/18 09:26:31;;;;;;;;;;;;;;;;;;4956135;28;106228;-70
2022/04/18 09:28:59;;;;;;;;;;;;;;;;;;4971922;28;107968;-70
2022/04/18 09:31:27;;;;;;;;;;;;;;;;;;4953038;28;137219;-70
2022/04/18 09:33:58;;;;;;;;;;;;;;;;;;4954890;28;106435;-70
2022/04/18 09:36:27;;;;;;;;;;;;;;;;;;4956238;28;106873;-71
2022/04/18 09:38:53;;;;;;;;;;;;;;;;;;4970568;28;138329;-70
2022/04/18 09:41:25;;;;;;;;;;;;;;;;;;4956084;28;105978;-70
2022/04/18 09:43:52;;;;;;;;;;;;;;;;;;4974722;28;107822;-71
2022/04/18 09:46:24;;;;;;;;;;;;;;;;;;4954288;28;106988;-70
2022/04/18 09:48:57;;;;;;;;;;;;;;;;;;4970692;28;107957;-70
2022/04/18 09:51:29;;;;;;;;;;;;;;;;;;4944074;28;108458;-70
2022/04/18 09:54:05;;;;;;;;;;;;;;;;;;4955447;28;106244;-70
2022/04/18 09:56:31;;;;;;;;;;;;;;;;;;4955226;28;120890;-71
2022/04/18 09:58:58;;;;;;;;;;;;;;;;;;4954875;28;135974;-71
2022/04/18 10:01:32;;;;;;;;;;;;;;;;;;4954929;28;123436;-70
2022/04/18 10:03:58;;;;;;;;;;;;;;;;;;4954935;28;137987;-70
2022/04/18 10:06:25;;;;;;;;;;;;;;;;;;4957634;28;106016;-70
2022/04/18 10:08:51;;;;;;;;;;;;;;;;;;4953888;28;128516;-69
2022/04/18 10:11:17;;;;;;;;;;;;;;;;;;4954950;28;118916;-70
2022/04/18 10:13:44;;;;;;;;;;;;;;;;;;4932095;28;123559;-70
2022/04/18 10:16:10;;;;;;;;;;;;;;;;;;4934148;28;136741;-70
2022/04/18 10:18:36;;;;;;;;;;;;;;;;;;4934254;28;135767;-70
2022/04/18 10:21:03;;;;;;;;;;;;;;;;;;4935415;28;122259;-71
2022/04/18 10:23:30;;;;;;;;;;;;;;;;;;4934986;28;137106;-71
2022/04/18 10:25:56;;;;;;;;;;;;;;;;;;4937772;28;137817;-70
2022/04/18 10:28:22;;;;;;;;;;;;;;;;;;4934479;28;128420;-70
2022/04/18 10:30:49;;;;;;;;;;;;;;;;;;4934687;28;137651;-71
2022/04/18 10:33:17;;;;;;;;;;;;;;;;;;4935574;28;106087;-71
2022/04/18 10:35:43;;;;;;;;;;;;;;;;;;4934410;28;134822;-70
2022/04/18 10:38:09;;;;;;;;;;;;;;;;;;4933451;28;136089;-71
2022/04/18 10:40:35;;;;;;;;;;;;;;;;;;4935186;28;124454;-70
2022/04/18 10:43:02;;;;;;;;;;;;;;;;;;4935107;28;105971;-71
2022/04/18 10:45:28;;;;;;;;;;;;;;;;;;4934318;28;137185;-71
2022/04/18 10:47:54;;;;;;;;;;;;;;;;;;4938261;28;123105;-70
2022/04/18 10:50:20;;;;;;;;;;;;;;;;;;4933829;28;138182;-70
2022/04/18 10:52:47;;;;;;;;;;;;;;;;;;4935160;28;121701;-71
2022/04/18 10:55:13;;;;;;;;;;;;;;;;;;4934571;28;137382;-70
2022/04/18 10:57:40;;;;;;;;;;;;;;;;;;4933500;28;136082;-71
2022/04/18 11:00:06;;;;;;;;;;;;;;;;;;4934279;28;122009;-70
2022/04/18 11:02:32;;;;;;;;;;;;;;;;;;4966069;28;106836;-70
2022/04/18 11:04:59;;;;;;;;;;;;;;;;;;4935472;28;107611;-70
2022/04/18 11:07:25;;;;;;;;;;;;;;;;;;4934003;28;123380;-70
2022/04/18 11:09:52;;;;;;;;;;;;;;;;;;4937349;28;136889;-70
2022/04/18 11:12:20;;;;;;;;;;;;;;;;;;4933270;28;123759;-70
2022/04/18 11:14:47;;;;;;;;;;;;;;;;;;4951478;28;135738;-70
2022/04/18 11:17:13;;;;;;;;;;;;;;;;;;4953387;28;137239;-70
2022/04/18 11:19:39;;;;;;;;;;;;;;;;;;4953567;28;121465;-70
2022/04/18 11:22:06;;;;;;;;;;;;;;;;;;4966111;28;107458;-71
2022/04/18 11:24:33;;;;;;;;;;;;;;;;;;4971562;28;133295;-70
2022/04/18 11:26:59;;;;;;;;;;;;;;;;;;4958825;28;121516;-70
2022/04/18 11:29:25;;;;;;;;;;;;;;;;;;4952861;28;135784;-70
2022/04/18 11:31:51;;;;;;;;;;;;;;;;;;4956637;28;136077;-70
2022/04/18 11:34:18;;;;;;;;;;;;;;;;;;4953952;28;119440;-71
2022/04/18 11:36:45;;;;;;;;;;;;;;;;;;4967934;28;129550;-71
2022/04/18 11:39:11;;;;;;;;;;;;;;;;;;4953391;28;122478;-71
2022/04/18 11:41:37;;;;;;;;;;;;;;;;;;4952583;28;135330;-70
2022/04/18 11:44:04;;;;;;;;;;;;;;;;;;4953084;28;135772;-71
2022/04/18 11:46:30;;;;;;;;;;;;;;;;;;4954236;28;121416;-71
2022/04/18 11:48:56;;;;;;;;;;;;;;;;;;4953228;28;135408;-70
2022/04/18 11:51:23;;;;;;;;;;;;;;;;;;4951600;28;136942;-70
2022/04/18 11:53:53;;;;;;;;;;;;;;;;;;4957457;28;106357;-70
2022/04/18 11:56:19;;;;;;;;;;;;;;;;;;4951952;28;137364;-70
2022/04/18 11:58:46;;;;;;;;;;;;;;;;;;4952767;28;124681;-70
2022/04/18 12:06:45;;;;;;;;;;;;;;;;;;4953262;28;124405;-71
2022/04/18 12:09:12;;;;;;;;;;;;;;;;;;4952815;28;136560;-70
2022/04/18 12:11:38;;;;;;;;;;;;;;;;;;4951583;28;138062;-70
2022/04/18 12:14:05;;;;;;;;;;;;;;;;;;4957299;28;106639;-71
2022/04/18 12:16:32;;;;;;;;;;;;;;;;;;4952238;28;132529;-70
2022/04/18 12:18:59;;;;;;;;;;;;;;;;;;4954186;28;106919;-71
2022/04/18 12:21:25;;;;;;;;;;;;;;;;;;4952524;28;123628;-70
2022/04/18 12:23:51;;;;;;;;;;;;;;;;;;4952938;28;136280;-71
2022/04/18 12:26:18;;;;;;;;;;;;;;;;;;4952290;28;124065;-70
2022/04/18 12:28:44;;;;;;;;;;;;;;;;;;4952812;28;124224;-71
2022/04/18 12:31:10;;;;;;;;;;;;;;;;;;4952234;28;137323;-71
2022/04/18 12:33:37;;;;;;;;;;;;;;;;;;4952482;28;115309;-71
2022/04/18 12:36:03;;;;;;;;;;;;;;;;;;4956487;28;135800;-71
2022/04/18 12:38:30;;;;;;;;;;;;;;;;;;4952745;28;123512;-70
2022/04/18 12:40:56;;;;;;;;;;;;;;;;;;4951225;28;134458;-70
2022/04/18 12:43:22;;;;;;;;;;;;;;;;;;4952340;28;122727;-71
2022/04/18 12:45:50;;;;;;;;;;;;;;;;;;4952417;28;123446;-70
2022/04/18 12:48:16;;;;;;;;;;;;;;;;;;4952581;28;136351;-70
2022/04/18 12:50:43;;;;;;;;;;;;;;;;;;4951238;28;137247;-70
2022/04/18 12:53:09;;;;;;;;;;;;;;;;;;4951608;28;114696;-70
2022/04/18 12:55:35;;;;;;;;;;;;;;;;;;4952959;28;135886;-70
2022/04/18 12:58:02;;;;;;;;;;;;;;;;;;4954963;28;137202;-70
2022/04/18 13:00:28;;;;;;;;;;;;;;;;;;4951839;28;136892;-71
2022/04/18 13:02:54;;;;;;;;;;;;;;;;;;4951236;28;138119;-72
2022/04/18 13:05:20;;;;;;;;;;;;;;;;;;4951177;28;120127;-70
2022/04/18 13:07:47;;;;;;;;;;;;;;;;;;4952237;28;126832;-71
2022/04/18 13:10:13;;;;;;;;;;;;;;;;;;4951154;28;136108;-70
2022/04/18 13:12:39;;;;;;;;;;;;;;;;;;4950617;28;107070;-70
2022/04/18 13:15:06;;;;;;;;;;;;;;;;;;4952244;28;132789;-71
2022/04/18 13:17:33;;;;;;;;;;;;;;;;;;4952058;28;108618;-71
2022/04/18 13:20:00;;;;;;;;;;;;;;;;;;4956645;28;106240;-71
2022/04/18 13:22:27;;;;;;;;;;;;;;;;;;4950888;28;135925;-70
2022/04/18 13:24:53;;;;;;;;;;;;;;;;;;4951280;28;123398;-71
2022/04/18 13:27:19;;;;;;;;;;;;;;;;;;4950889;28;137667;-71
2022/04/18 13:29:46;;;;;;;;;;;;;;;;;;4949777;28;137413;-70
2022/04/18 13:32:12;;;;;;;;;;;;;;;;;;4951412;28;127288;-70
2022/04/18 13:34:38;;;;;;;;;;;;;;;;;;4952076;28;106228;-70
2022/04/18 13:37:05;;;;;;;;;;;;;;;;;;4951363;28;137009;-70
2022/04/18 13:39:31;;;;;;;;;;;;;;;;;;4951419;28;124299;-70
2022/04/18 13:41:57;;;;;;;;;;;;;;;;;;4953972;28;138130;-70
2022/04/18 13:44:23;;;;;;;;;;;;;;;;;;4951396;28;106295;-70
2022/04/18 13:46:50;;;;;;;;;;;;;;;;;;4951546;28;125955;-71
2022/04/18 13:49:16;;;;;;;;;;;;;;;;;;4965562;28;137477;-71
2022/04/18 13:51:43;;;;;;;;;;;;;;;;;;4954365;28;119512;-71
2022/04/18 13:54:09;;;;;;;;;;;;;;;;;;4954575;28;107042;-71
2022/04/18 13:56:37;;;;;;;;;;;;;;;;;;4953843;28;137364;-71
2022/04/18 13:59:04;;;;;;;;;;;;;;;;;;4955927;28;108886;-70
2022/04/18 14:01:31;;;;;;;;;;;;;;;;;;4954817;28;137195;-70
2022/04/18 14:03:57;;;;;;;;;;;;;;;;;;4957922;28;136187;-70
2022/04/18 14:06:26;;;;;;;;;;;;;;;;;;4954352;28;137361;-70
2022/04/18 14:08:52;;;;;;;;;;;;;;;;;;4954965;28;108554;-70
2022/04/18 14:11:19;;;;;;;;;;;;;;;;;;4953772;28;122297;-71
2022/04/18 14:13:45;;;;;;;;;;;;;;;;;;4955114;28;108119;-70
2022/04/18 14:21:43;;;;;;;;;;;;;;;;;;4954338;28;135827;-71
2022/04/18 14:24:09;;;;;;;;;;;;;;;;;;4957396;28;132772;-71
2022/04/18 14:26:36;;;;;;;;;;;;;;;;;;4952590;28;138613;-71
2022/04/18 14:29:02;;;;;;;;;;;;;;;;;;4954405;28;136565;-71
2022/04/18 14:31:29;;;;;;;;;;;;;;;;;;4952883;28;117069;-70
2022/04/18 14:33:55;;;;;;;;;;;;;;;;;;4954190;28;137302;-71
2022/04/18 14:36:22;;;;;;;;;;;;;;;;;;4953076;28;138257;-70
2022/04/18 14:38:48;;;;;;;;;;;;;;;;;;4953496;28;123096;-70
2022/04/18 14:41:14;;;;;;;;;;;;;;;;;;4953114;28;120361;-71
2022/04/18 14:43:40;;;;;;;;;;;;;;;;;;4952287;28;136780;-71
2022/04/18 14:46:07;;;;;;;;;;;;;;;;;;4957912;28;125144;-70
2022/04/18 14:48:33;;;;;;;;;;;;;;;;;;4954046;28;116530;-70
2022/04/18 14:50:59;;;;;;;;;;;;;;;;;;4954574;28;106427;-70
2022/04/18 14:53:26;;;;;;;;;;;;;;;;;;4953297;28;137031;-70
2022/04/18 14:55:52;;;;;;;;;;;;;;;;;;4952775;28;137977;-70
2022/04/18 14:58:18;;;;;;;;;;;;;;;;;;4968540;28;123524;-70
2022/04/18 15:00:45;;;;;;;;;;;;;;;;;;4953865;28;136870;-71
2022/04/18 15:03:11;;;;;;;;;;;;;;;;;;4953202;28;106656;-71
2022/04/18 15:05:38;;;;;;;;;;;;;;;;;;4953517;28;121881;-71
2022/04/18 15:08:04;;;;;;;;;;;;;;;;;;4956004;28;130969;-68
2022/04/18 15:10:30;;;;;;;;;;;;;;;;;;4953448;28;125867;-71
2022/04/18 15:12:57;;;;;;;;;;;;;;;;;;4952457;28;137510;-71
2022/04/18 15:15:23;;;;;;;;;;;;;;;;;;4952642;28;134675;-71
2022/04/18 15:17:49;;;;;;;;;;;;;;;;;;4953709;28;122171;-71
2022/04/18 15:20:16;;;;;;;;;;;;;;;;;;4953533;28;116911;-71
2022/04/18 15:22:42;;;;;;;;;;;;;;;;;;4953172;28;119834;-71
2022/04/18 15:25:08;;;;;;;;;;;;;;;;;;4954163;28;106812;-71
2022/04/18 15:27:35;;;;;;;;;;;;;;;;;;4952192;28;135661;-71
2022/04/18 15:32:47;;;;;;;;;;;;;;;;;;4951404;28;137246;-71
2022/04/18 15:35:13;;;;;;;;;;;;;;;;;;4952196;28;125970;-71
2022/04/18 15:37:40;;;;;;;;;;;;;;;;;;4952553;28;123819;-70
2022/04/18 15:40:06;;;;;;;;;;;;;;;;;;4952649;28;136256;-70
2022/04/18 15:42:32;;;;;;;;;;;;;;;;;;4951680;28;136269;-71
2022/04/18 15:44:59;;;;;;;;;;;;;;;;;;4951997;28;123904;-71
2022/04/18 15:47:28;;;;;;;;;;;;;;;;;;4952751;28;134105;-71
2022/04/18 15:49:54;;;;;;;;;;;;;;;;;;4952585;28;137087;-70
2022/04/18 15:52:20;;;;;;;;;;;;;;;;;;4955453;28;122907;-71
2022/04/18 15:54:47;;;;;;;;;;;;;;;;;;4952330;28;137588;-70
2022/04/18 15:57:13;;;;;;;;;;;;;;;;;;4950427;28;124024;-70
2022/04/18 15:59:39;;;;;;;;;;;;;;;;;;4952848;28;135724;-70
2022/04/18 16:02:07;;;;;;;;;;;;;;;;;;4951964;28;136800;-70
2022/04/18 16:04:34;;;;;;;;;;;;;;;;;;4952403;28;124657;-67
2022/04/18 16:07:00;;;;;;;;;;;;;;;;;;4952475;28;137155;-70
2022/04/18 16:09:26;;;;;;;;;;;;;;;;;;4951395;28;137585;-70
2022/04/18 16:11:53;;;;;;;;;;;;;;;;;;4951589;28;123768;-69
2022/04/18 16:14:19;;;;;;;;;;;;;;;;;;4954525;28;137492;-70
2022/04/18 16:16:48;;;;;;;;;;;;;;;;;;4951924;28;123010;-70
2022/04/18 16:19:14;;;;;;;;;;;;;;;;;;4953003;28;107398;-70
2022/04/18 16:21:40;;;;;;;;;;;;;;;;;;4950786;28;133988;-70
2022/04/18 16:24:09;;;;;;;;;;;;;;;;;;4953034;28;106508;-69
2022/04/18 16:26:36;;;;;;;;;;;;;;;;;;4951800;28;136103;-69
2022/04/18 16:31:50;;;;;;;;;;;;;;;;;;4952503;28;123783;-69
2022/04/18 16:34:16;;;;;;;;;;;;;;;;;;4954563;28;136858;-69
2022/04/18 16:36:42;;;;;;;;;;;;;;;;;;4950804;28;123255;-69
2022/04/18 16:39:09;;;;;;;;;;;;;;;;;;4952234;28;122243;-70
2022/04/18 16:47:05;;;;;;;;;;;;;;;;;;4951358;28;137062;-69
2022/04/18 16:49:31;;;;;;;;;;;;;;;;;;4951908;28;136007;-70
2022/04/18 16:51:57;;;;;;;;;;;;;;;;;;4951404;28;123943;-70
2022/04/18 16:54:24;;;;;;;;;;;;;;;;;;4952027;28;136757;-71
2022/04/18 16:56:50;;;;;;;;;;;;;;;;;;4954377;28;138125;-70
2022/04/18 16:59:16;;;;;;;;;;;;;;;;;;4951583;28;137820;-70
2022/04/18 17:01:44;;;;;;;;;;;;;;;;;;4951504;28;137441;-71
2022/04/18 17:04:10;;;;;;;;;;;;;;;;;;4951779;28;123700;-71
2022/04/18 17:06:36;;;;;;;;;;;;;;;;;;4951975;28;136463;-71
2022/04/18 17:09:03;;;;;;;;;;;;;;;;;;4951528;28;137355;-70
2022/04/18 17:11:29;;;;;;;;;;;;;;;;;;4951410;28;106327;-71
2022/04/18 17:13:56;;;;;;;;;;;;;;;;;;4951823;28;136839;-71
2022/04/18 17:16:22;;;;;;;;;;;;;;;;;;4951043;28;138192;-70
2022/04/18 17:18:48;;;;;;;;;;;;;;;;;;4955214;28;123524;-71